createdAt,value
2019-01-23T00:00:20.063Z,50.70
2019-01-23T00:01:20.047Z,52.20
2019-01-23T00:02:20.014Z,53.10
2019-01-23T00:03:20.000Z,51.10
2019-01-23T00:04:20.010Z,50.50
2019-01-23T00:05:19.972Z,51.40
2019-01-23T00:06:19.970Z,51.20
2019-01-23T00:07:19.956Z,50.00
2019-01-23T00:08:19.954Z,49.30
2019-01-23T00:09:19.949Z,49.10
2019-01-23T00:10:19.980Z,51.20
2019-01-23T00:11:19.914Z,49.90
2019-01-23T00:12:19.901Z,51.30
2019-01-23T00:13:19.894Z,49.20
2019-01-23T00:14:19.882Z,50.90
2019-01-23T00:15:19.887Z,50.00
2019-01-23T00:16:19.862Z,50.20
2019-01-23T00:17:19.844Z,49.20
2019-01-23T00:18:19.836Z,50.50
2019-01-23T00:19:19.826Z,50.60
2019-01-23T00:20:19.830Z,50.20
2019-01-23T00:21:19.806Z,51.30
2019-01-23T00:22:19.803Z,50.20
2019-01-23T00:23:19.784Z,49.60
2019-01-23T00:24:19.766Z,48.90
2019-01-23T00:25:19.780Z,49.00
2019-01-23T00:26:19.747Z,48.10
2019-01-23T00:27:19.756Z,47.90
2019-01-23T00:28:19.732Z,47.20
2019-01-23T00:29:19.723Z,48.50
2019-01-23T00:30:19.769Z,47.50
2019-01-23T00:31:19.694Z,46.80
2019-01-23T00:32:19.680Z,47.20
2019-01-23T00:33:19.670Z,48.80
2019-01-23T00:34:19.734Z,48.60
2019-01-23T00:35:19.686Z,48.40
2019-01-23T00:36:19.640Z,49.90
2019-01-23T00:37:20.528Z,50.10
2019-01-23T00:38:19.837Z,48.70
2019-01-23T00:39:19.689Z,51.20
2019-01-23T00:40:19.600Z,48.60
2019-01-23T00:41:19.619Z,49.60
2019-01-23T00:42:19.582Z,47.70
2019-01-23T00:43:19.577Z,50.00
2019-01-23T00:44:19.556Z,48.90
2019-01-23T00:45:19.545Z,47.70
2019-01-23T00:46:19.558Z,46.60
2019-01-23T00:47:19.530Z,48.30
2019-01-23T00:48:19.515Z,47.40
2019-01-23T00:49:19.516Z,48.20
2019-01-23T00:50:19.488Z,49.00
2019-01-23T00:51:19.518Z,48.40
2019-01-23T00:52:19.498Z,47.40
2019-01-23T00:53:19.452Z,48.80
2019-01-23T00:54:19.447Z,48.20
2019-01-23T00:55:19.442Z,48.70
2019-01-23T00:56:19.437Z,48.50
2019-01-23T00:57:19.412Z,47.70
2019-01-23T00:58:19.408Z,45.80
2019-01-23T00:59:19.398Z,46.80
2019-01-23T01:00:19.408Z,45.60
2019-01-23T01:01:19.380Z,47.60
2019-01-23T01:02:19.354Z,47.80
2019-01-23T01:03:19.364Z,47.60
2019-01-23T01:04:19.340Z,45.90
2019-01-23T01:05:19.323Z,47.00
2019-01-23T01:06:19.330Z,47.60
2019-01-23T01:07:19.307Z,47.20
2019-01-23T01:08:19.296Z,46.50
2019-01-23T01:09:19.284Z,47.60
2019-01-23T01:10:19.270Z,46.00
2019-01-23T01:11:19.276Z,45.00
2019-01-23T01:12:19.253Z,46.00
2019-01-23T01:13:19.239Z,47.20
2019-01-23T01:14:19.251Z,48.60
2019-01-23T01:15:19.222Z,47.90
2019-01-23T01:16:19.221Z,46.80
2019-01-23T01:17:19.224Z,49.00
2019-01-23T01:18:19.187Z,49.00
2019-01-23T01:19:19.176Z,47.50
2019-01-23T01:20:19.164Z,45.50
2019-01-23T01:21:19.174Z,46.90
2019-01-23T01:22:19.144Z,45.70
2019-01-23T01:23:19.129Z,45.90
2019-01-23T01:24:19.122Z,46.70
2019-01-23T01:25:19.112Z,47.20
2019-01-23T01:26:19.105Z,45.80
2019-01-23T01:27:19.104Z,45.10
2019-01-23T01:28:19.080Z,45.80
2019-01-23T01:29:19.135Z,48.10
2019-01-23T01:30:19.052Z,46.80
2019-01-23T01:31:19.055Z,46.50
2019-01-23T01:32:19.464Z,47.60
2019-01-23T01:33:19.029Z,47.00
2019-01-23T01:34:19.041Z,46.00
2019-01-23T01:35:18.998Z,47.90
2019-01-23T01:36:18.984Z,48.50
2019-01-23T01:37:18.996Z,46.40
2019-01-23T01:38:18.968Z,47.20
2019-01-23T01:39:18.967Z,47.70
2019-01-23T01:40:18.946Z,47.00
2019-01-23T01:41:18.939Z,49.00
2019-01-23T01:42:18.941Z,48.70
2019-01-23T01:43:18.996Z,48.70
2019-01-23T01:44:18.897Z,47.20
2019-01-23T01:45:18.892Z,48.20
2019-01-23T01:46:18.876Z,46.50
2019-01-23T01:47:18.882Z,50.50
2019-01-23T01:48:18.869Z,45.90
2019-01-23T01:49:18.845Z,47.70
2019-01-23T01:50:18.833Z,48.60
2019-01-23T01:51:18.827Z,48.10
2019-01-23T01:52:18.829Z,47.50
2019-01-23T01:53:18.800Z,46.00
2019-01-23T01:54:18.792Z,47.20
2019-01-23T01:55:18.794Z,49.00
2019-01-23T01:56:18.777Z,48.80
2019-01-23T01:57:18.782Z,47.60
2019-01-23T01:58:18.751Z,49.20
2019-01-23T01:59:18.741Z,47.10
2019-01-23T02:00:18.728Z,48.30
2019-01-23T02:01:18.717Z,48.30
2019-01-23T02:02:18.702Z,48.30
2019-01-23T02:03:18.708Z,46.90
2019-01-23T02:04:18.685Z,47.80
2019-01-23T02:05:18.673Z,53.50
2019-01-23T02:06:18.672Z,50.10
2019-01-23T02:07:18.648Z,48.70
2019-01-23T02:08:18.651Z,50.80
2019-01-23T02:09:18.638Z,47.10
2019-01-23T02:10:18.618Z,47.00
2019-01-23T02:11:18.636Z,47.30
2019-01-23T02:12:18.604Z,47.00
2019-01-23T02:13:18.629Z,47.40
2019-01-23T02:14:18.579Z,48.10
2019-01-23T02:15:18.566Z,48.00
2019-01-23T02:16:18.555Z,50.30
2019-01-23T02:17:18.548Z,49.70
2019-01-23T02:18:18.537Z,47.40
2019-01-23T02:19:18.548Z,49.90
2019-01-23T02:20:18.512Z,48.20
2019-01-23T02:21:18.498Z,49.30
2019-01-23T02:22:18.484Z,50.80
2019-01-23T02:23:18.498Z,49.40
2019-01-23T02:24:18.495Z,48.80
2019-01-23T02:25:18.454Z,48.80
2019-01-23T02:26:19.317Z,49.10
2019-01-23T02:27:18.435Z,50.10
2019-01-23T02:28:18.435Z,48.20
2019-01-23T02:29:18.432Z,48.20
2019-01-23T02:30:18.453Z,50.00
2019-01-23T02:31:18.391Z,48.80
2019-01-23T02:32:18.381Z,50.10
2019-01-23T02:33:18.401Z,50.00
2019-01-23T02:34:18.358Z,48.60
2019-01-23T02:35:18.353Z,50.10
2019-01-23T02:36:18.336Z,50.00
2019-01-23T02:37:18.331Z,48.20
2019-01-23T02:38:18.332Z,49.00
2019-01-23T02:39:18.298Z,48.30
2019-01-23T02:40:18.289Z,48.00
2019-01-23T02:41:18.283Z,49.50
2019-01-23T02:42:18.268Z,49.60
2019-01-23T02:43:18.305Z,49.90
2019-01-23T02:44:18.271Z,49.30
2019-01-23T02:45:18.234Z,48.20
2019-01-23T02:46:18.233Z,50.40
2019-01-23T02:47:18.217Z,50.70
2019-01-23T02:48:18.208Z,51.20
2019-01-23T02:49:18.212Z,52.40
2019-01-23T02:50:18.183Z,50.00
2019-01-23T02:51:18.174Z,50.60
2019-01-23T02:52:18.166Z,50.90
2019-01-23T02:53:18.150Z,50.90
2019-01-23T02:54:18.162Z,48.00
2019-01-23T02:55:18.144Z,49.80
2019-01-23T02:56:18.133Z,49.00
2019-01-23T02:57:18.110Z,49.00
2019-01-23T02:58:18.101Z,50.20
2019-01-23T02:59:18.174Z,51.40
2019-01-23T03:00:18.078Z,49.50
2019-01-23T03:01:18.074Z,52.40
2019-01-23T03:02:18.051Z,50.50
2019-01-23T03:03:18.060Z,51.90
2019-01-23T03:04:18.049Z,50.50
2019-01-23T03:05:18.026Z,49.80
2019-01-23T03:06:18.009Z,51.90
2019-01-23T03:07:18.019Z,51.60
2019-01-23T03:08:17.983Z,49.50
2019-01-23T03:09:17.991Z,50.70
2019-01-23T03:10:17.963Z,51.90
2019-01-23T03:11:17.953Z,49.60
2019-01-23T03:12:17.942Z,50.60
2019-01-23T03:13:17.939Z,52.80
2019-01-23T03:14:17.945Z,52.00
2019-01-23T03:15:17.912Z,51.30
2019-01-23T03:16:17.910Z,51.90
2019-01-23T03:17:17.890Z,49.90
2019-01-23T03:18:17.878Z,50.90
2019-01-23T03:19:17.887Z,50.60
2019-01-23T03:20:17.855Z,52.20
2019-01-23T03:21:17.844Z,51.40
2019-01-23T03:22:17.837Z,51.70
2019-01-23T03:23:17.824Z,51.90
2019-01-23T03:24:17.831Z,51.50
2019-01-23T03:25:17.801Z,54.30
2019-01-23T03:26:17.792Z,51.80
2019-01-23T03:27:17.783Z,53.50
2019-01-23T03:28:17.767Z,52.10
2019-01-23T03:29:24.486Z,53.00
2019-01-23T03:30:18.769Z,52.30
2019-01-23T03:31:17.736Z,52.30
2019-01-23T03:32:17.732Z,53.10
2019-01-23T03:33:17.724Z,53.50
2019-01-23T03:34:17.724Z,52.80
2019-01-23T03:35:17.693Z,54.20
2019-01-23T03:36:17.682Z,51.60
2019-01-23T03:37:17.671Z,51.10
2019-01-23T03:38:17.667Z,53.00
2019-01-23T03:39:17.681Z,52.90
2019-01-23T03:40:17.647Z,53.20
2019-01-23T03:41:17.623Z,52.40
2019-01-23T03:42:17.626Z,51.80
2019-01-23T03:43:17.605Z,51.50
2019-01-23T03:44:17.629Z,52.80
2019-01-23T03:45:17.602Z,53.00
2019-01-23T03:46:17.571Z,51.00
2019-01-23T03:47:17.563Z,50.70
2019-01-23T03:48:17.552Z,51.80
2019-01-23T03:49:17.539Z,53.40
2019-01-23T03:50:17.551Z,51.80
2019-01-23T03:51:17.528Z,53.30
2019-01-23T03:52:17.505Z,53.10
2019-01-23T03:53:17.498Z,52.50
2019-01-23T03:54:17.485Z,51.30
2019-01-23T03:55:17.495Z,52.00
2019-01-23T03:56:17.468Z,52.90
2019-01-23T03:57:17.455Z,50.40
2019-01-23T03:58:17.438Z,52.90
2019-01-23T03:59:17.430Z,51.80
2019-01-23T04:00:18.430Z,51.10
2019-01-23T04:01:17.407Z,52.00
2019-01-23T04:02:17.404Z,51.50
2019-01-23T04:03:17.393Z,51.30
2019-01-23T04:04:17.377Z,51.60
2019-01-23T04:05:17.378Z,52.70
2019-01-23T04:06:17.355Z,49.80
2019-01-23T04:07:17.346Z,50.40
2019-01-23T04:08:17.335Z,51.80
2019-01-23T04:09:17.322Z,53.00
2019-01-23T04:10:17.321Z,52.30
2019-01-23T04:11:17.298Z,52.80
2019-01-23T04:12:17.285Z,54.60
2019-01-23T04:13:17.282Z,53.00
2019-01-23T04:14:17.291Z,54.40
2019-01-23T04:15:17.273Z,52.90
2019-01-23T04:16:17.243Z,53.90
2019-01-23T04:17:17.240Z,54.50
2019-01-23T04:18:17.220Z,52.30
2019-01-23T04:19:17.217Z,54.40
2019-01-23T04:20:17.225Z,53.00
2019-01-23T04:21:17.196Z,52.70
2019-01-23T04:22:17.180Z,51.30
2019-01-23T04:23:17.184Z,51.30
2019-01-23T04:24:17.165Z,51.90
2019-01-23T04:25:17.172Z,51.60
2019-01-23T04:26:17.132Z,52.50
2019-01-23T04:27:17.123Z,51.20
2019-01-23T04:28:17.110Z,52.20
2019-01-23T04:29:17.100Z,49.80
2019-01-23T04:30:17.090Z,51.40
2019-01-23T04:31:17.103Z,51.70
2019-01-23T04:32:17.072Z,50.70
2019-01-23T04:33:17.054Z,53.60
2019-01-23T04:34:17.052Z,52.40
2019-01-23T04:35:17.037Z,53.00
2019-01-23T04:36:17.045Z,51.70
2019-01-23T04:37:17.016Z,52.50
2019-01-23T04:38:17.009Z,52.10
2019-01-23T04:39:16.991Z,51.30
2019-01-23T04:40:16.984Z,54.40
2019-01-23T04:41:16.986Z,53.40
2019-01-23T04:42:16.969Z,54.50
2019-01-23T04:43:16.950Z,53.60
2019-01-23T04:44:16.938Z,51.50
2019-01-23T04:45:16.927Z,51.70
2019-01-23T04:46:16.932Z,52.90
2019-01-23T04:47:16.914Z,52.00
2019-01-23T04:48:16.906Z,51.90
2019-01-23T04:49:16.893Z,51.40
2019-01-23T04:50:16.875Z,51.50
2019-01-23T04:51:17.018Z,51.70
2019-01-23T04:52:16.854Z,52.70
2019-01-23T04:53:16.852Z,52.70
2019-01-23T04:54:16.843Z,51.80
2019-01-23T04:55:16.818Z,53.00
2019-01-23T04:56:16.817Z,51.20
2019-01-23T04:57:16.800Z,51.50
2019-01-23T04:58:16.790Z,52.80
2019-01-23T04:59:16.786Z,52.00
2019-01-23T05:00:16.767Z,51.90
2019-01-23T05:01:16.804Z,51.20
2019-01-23T05:02:16.745Z,48.80
2019-01-23T05:03:16.737Z,48.50
2019-01-23T05:04:16.728Z,49.40
2019-01-23T05:05:16.721Z,49.70
2019-01-23T05:06:16.720Z,49.00
2019-01-23T05:07:16.700Z,49.80
2019-01-23T05:08:16.674Z,50.40
2019-01-23T05:09:16.668Z,49.40
2019-01-23T05:10:16.661Z,50.60
2019-01-23T05:11:16.644Z,52.20
2019-01-23T05:12:16.658Z,51.00
2019-01-23T05:13:16.624Z,51.00
2019-01-23T05:14:16.641Z,51.80
2019-01-23T05:15:16.623Z,50.80
2019-01-23T05:16:16.603Z,50.10
2019-01-23T05:17:16.599Z,50.00
2019-01-23T05:18:16.568Z,50.90
2019-01-23T05:19:16.557Z,52.20
2019-01-23T05:20:16.563Z,52.60
2019-01-23T05:21:16.536Z,52.70
2019-01-23T05:22:16.543Z,50.30
2019-01-23T05:23:16.518Z,51.50
2019-01-23T05:24:16.503Z,50.40
2019-01-23T05:25:16.519Z,53.90
2019-01-23T05:26:16.496Z,52.80
2019-01-23T05:27:16.502Z,54.00
2019-01-23T05:28:16.467Z,53.20
2019-01-23T05:29:16.457Z,52.00
2019-01-23T05:30:16.445Z,53.50
2019-01-23T05:31:16.437Z,50.40
2019-01-23T05:32:16.444Z,53.00
2019-01-23T05:33:16.412Z,51.60
2019-01-23T05:34:16.409Z,51.30
2019-01-23T05:35:16.384Z,51.20
2019-01-23T05:36:16.373Z,51.60
2019-01-23T05:37:16.395Z,52.00
2019-01-23T05:38:16.351Z,52.40
2019-01-23T05:39:16.350Z,52.60
2019-01-23T05:40:16.345Z,51.80
2019-01-23T05:41:16.316Z,51.70
2019-01-23T05:42:16.328Z,53.70
2019-01-23T05:43:16.313Z,52.30
2019-01-23T05:44:16.292Z,53.00
2019-01-23T05:45:16.295Z,52.10
2019-01-23T05:46:16.272Z,52.90
2019-01-23T05:47:16.268Z,51.80
2019-01-23T05:48:16.271Z,52.00
2019-01-23T05:49:16.249Z,52.70
2019-01-23T05:50:16.224Z,52.70
2019-01-23T05:51:16.220Z,53.70
2019-01-23T05:52:16.198Z,52.70
2019-01-23T05:53:16.242Z,52.30
2019-01-23T05:54:16.182Z,54.80
2019-01-23T05:55:16.173Z,54.10
2019-01-23T05:56:16.167Z,52.10
2019-01-23T05:57:16.163Z,52.90
2019-01-23T05:58:16.170Z,53.00
2019-01-23T05:59:16.129Z,52.80
2019-01-23T06:00:16.118Z,56.10
2019-01-23T06:01:16.113Z,55.90
2019-01-23T06:02:16.102Z,51.90
2019-01-23T06:03:16.103Z,51.70
2019-01-23T06:04:16.161Z,52.20
2019-01-23T06:05:16.069Z,53.80
2019-01-23T06:06:16.046Z,52.90
2019-01-23T06:07:16.052Z,51.60
2019-01-23T06:08:16.061Z,51.70
2019-01-23T06:09:16.042Z,55.00
2019-01-23T06:10:16.034Z,51.50
2019-01-23T06:11:15.996Z,54.60
2019-01-23T06:12:16.004Z,56.30
2019-01-23T06:13:16.004Z,53.60
2019-01-23T06:14:15.960Z,56.20
2019-01-23T06:15:16.030Z,56.50
2019-01-23T06:16:15.952Z,56.10
2019-01-23T06:17:15.942Z,55.70
2019-01-23T06:18:15.977Z,57.20
2019-01-23T06:19:15.907Z,55.70
2019-01-23T06:20:15.937Z,55.30
2019-01-23T06:21:15.898Z,56.70
2019-01-23T06:22:15.953Z,56.90
2019-01-23T06:23:15.918Z,56.20
2019-01-23T06:24:15.856Z,54.60
2019-01-23T06:25:15.856Z,58.20
2019-01-23T06:26:15.834Z,56.20
2019-01-23T06:27:15.828Z,56.60
2019-01-23T06:28:15.833Z,57.30
2019-01-23T06:29:15.801Z,57.10
2019-01-23T06:30:15.797Z,57.00
2019-01-23T06:31:15.803Z,55.80
2019-01-23T06:32:15.772Z,58.00
2019-01-23T06:33:15.783Z,59.00
2019-01-23T06:34:15.742Z,56.80
2019-01-23T06:35:15.973Z,58.80
2019-01-23T06:36:15.722Z,58.40
2019-01-23T06:37:15.734Z,58.30
2019-01-23T06:38:15.739Z,59.30
2019-01-23T06:39:15.706Z,61.60
2019-01-23T06:40:15.676Z,58.70
2019-01-23T06:41:15.676Z,60.50
2019-01-23T06:42:15.676Z,61.30
2019-01-23T06:43:15.650Z,60.50
2019-01-23T06:44:15.690Z,58.30
2019-01-23T06:45:15.638Z,59.50
2019-01-23T06:46:15.624Z,61.70
2019-01-23T06:47:15.606Z,60.70
2019-01-23T06:48:15.598Z,60.30
2019-01-23T06:49:15.724Z,62.20
2019-01-23T06:50:15.568Z,60.60
2019-01-23T06:51:15.560Z,62.10
2019-01-23T06:52:15.547Z,63.00
2019-01-23T06:53:15.547Z,62.70
2019-01-23T06:54:15.564Z,62.30
2019-01-23T06:55:15.518Z,62.50
2019-01-23T06:56:15.505Z,63.70
2019-01-23T06:57:15.496Z,61.70
2019-01-23T06:58:15.479Z,64.80
2019-01-23T06:59:15.495Z,64.80
2019-01-23T07:00:17.335Z,66.30
2019-01-23T07:01:15.458Z,65.40
2019-01-23T07:02:15.444Z,65.20
2019-01-23T07:03:15.456Z,66.20
2019-01-23T07:04:15.437Z,67.10
2019-01-23T07:05:15.428Z,67.00
2019-01-23T07:06:15.398Z,66.90
2019-01-23T07:07:15.402Z,67.00
2019-01-23T07:08:15.378Z,65.10
2019-01-23T07:09:15.362Z,67.40
2019-01-23T07:10:15.368Z,68.20
2019-01-23T07:11:15.343Z,65.60
2019-01-23T07:12:15.330Z,69.30
2019-01-23T07:13:15.319Z,68.80
2019-01-23T07:14:15.304Z,68.40
2019-01-23T07:15:15.317Z,72.20
2019-01-23T07:16:15.300Z,69.80
2019-01-23T07:17:15.286Z,69.50
2019-01-23T07:18:15.272Z,70.20
2019-01-23T07:19:15.257Z,71.30
2019-01-23T07:20:15.261Z,72.30
2019-01-23T07:21:15.235Z,72.40
2019-01-23T07:22:15.234Z,70.70
2019-01-23T07:23:15.226Z,73.50
2019-01-23T07:24:15.224Z,72.70
2019-01-23T07:25:15.214Z,71.30
2019-01-23T07:26:15.176Z,71.70
2019-01-23T07:27:15.171Z,74.00
2019-01-23T07:28:15.177Z,73.70
2019-01-23T07:29:15.197Z,75.90
2019-01-23T07:30:15.162Z,75.70
2019-01-23T07:31:15.119Z,75.80
2019-01-23T07:32:15.110Z,74.70
2019-01-23T07:33:15.111Z,77.80
2019-01-23T07:34:15.110Z,74.70
2019-01-23T07:35:15.110Z,76.90
2019-01-23T07:36:15.068Z,78.50
2019-01-23T07:37:15.073Z,75.10
2019-01-23T07:38:15.048Z,77.50
2019-01-23T07:39:15.041Z,77.70
2019-01-23T07:40:15.061Z,79.10
2019-01-23T07:41:15.014Z,78.30
2019-01-23T07:42:14.996Z,80.50
2019-01-23T07:43:14.990Z,80.10
2019-01-23T07:44:15.054Z,81.00
2019-01-23T07:45:14.986Z,80.30
2019-01-23T07:46:14.981Z,81.30
2019-01-23T07:47:14.956Z,81.20
2019-01-23T07:48:14.942Z,81.50
2019-01-23T07:49:14.925Z,82.00
2019-01-23T07:50:14.910Z,83.30
2019-01-23T07:51:14.931Z,80.20
2019-01-23T07:52:14.900Z,85.90
2019-01-23T07:53:14.893Z,83.20
2019-01-23T07:54:14.872Z,84.90
2019-01-23T07:55:14.863Z,86.10
2019-01-23T07:56:14.865Z,84.60
2019-01-23T07:57:14.840Z,84.60
2019-01-23T07:58:14.828Z,85.50
2019-01-23T07:59:14.818Z,86.20
2019-01-23T08:00:14.814Z,84.80
2019-01-23T08:01:14.813Z,85.80
2019-01-23T08:02:14.792Z,85.50
2019-01-23T08:03:14.778Z,85.70
2019-01-23T08:04:14.766Z,83.90
2019-01-23T08:05:19.427Z,88.10
2019-01-23T08:06:15.760Z,89.60
2019-01-23T08:07:14.732Z,86.10
2019-01-23T08:08:14.752Z,87.70
2019-01-23T08:09:14.721Z,87.60
2019-01-23T08:10:14.718Z,87.20
2019-01-23T08:11:14.727Z,89.90
2019-01-23T08:12:14.684Z,89.80
2019-01-23T08:13:14.730Z,89.70
2019-01-23T08:14:14.696Z,91.00
2019-01-23T08:15:14.671Z,91.70
2019-01-23T08:16:17.382Z,92.10
2019-01-23T08:17:15.879Z,94.20
2019-01-23T08:18:14.610Z,94.10
2019-01-23T08:19:14.626Z,92.10
2019-01-23T08:20:14.619Z,93.20
2019-01-23T08:21:14.627Z,90.60
2019-01-23T08:22:14.586Z,93.40
2019-01-23T08:23:14.565Z,94.50
2019-01-23T08:24:14.553Z,94.30
2019-01-23T08:25:14.556Z,93.50
2019-01-23T08:26:14.577Z,94.60
2019-01-23T08:27:14.533Z,96.80
2019-01-23T08:28:14.524Z,95.90
2019-01-23T08:29:14.514Z,97.30
2019-01-23T08:30:14.487Z,96.30
2019-01-23T08:31:14.505Z,95.80
2019-01-23T08:32:14.486Z,97.20
2019-01-23T08:33:14.500Z,100.10
2019-01-23T08:34:14.454Z,99.20
2019-01-23T08:35:14.430Z,97.50
2019-01-23T08:36:14.439Z,97.90
2019-01-23T08:37:14.436Z,96.30
2019-01-23T08:38:14.406Z,99.50
2019-01-23T08:39:14.407Z,98.30
2019-01-23T08:40:14.381Z,96.40
2019-01-23T08:41:14.412Z,98.70
2019-01-23T08:42:14.441Z,97.30
2019-01-23T08:43:14.365Z,101.80
2019-01-23T08:44:14.342Z,101.40
2019-01-23T08:45:14.337Z,99.90
2019-01-23T08:46:14.307Z,100.80
2019-01-23T08:47:14.347Z,99.10
2019-01-23T08:48:14.305Z,101.50
2019-01-23T08:49:14.279Z,101.80
2019-01-23T08:50:14.281Z,101.60
2019-01-23T08:51:14.275Z,101.30
2019-01-23T08:52:14.288Z,101.30
2019-01-23T08:53:14.253Z,103.20
2019-01-23T08:54:14.230Z,101.70
2019-01-23T08:55:14.224Z,101.20
2019-01-23T08:56:14.209Z,102.10
2019-01-23T08:57:14.286Z,104.60
2019-01-23T08:58:14.184Z,105.80
2019-01-23T08:59:14.174Z,103.40
2019-01-23T09:00:14.170Z,102.50
2019-01-23T09:01:14.165Z,104.70
2019-01-23T09:02:14.158Z,101.90
2019-01-23T09:03:14.121Z,105.10
2019-01-23T09:04:14.120Z,103.40
2019-01-23T09:05:14.119Z,106.70
2019-01-23T09:06:14.104Z,106.60
2019-01-23T09:07:14.137Z,104.80
2019-01-23T09:08:14.074Z,106.20
2019-01-23T09:09:14.065Z,103.40
2019-01-23T09:10:14.068Z,107.10
2019-01-23T09:11:14.044Z,109.20
2019-01-23T09:12:14.061Z,107.30
2019-01-23T09:13:14.028Z,107.40
2019-01-23T09:14:14.012Z,105.50
2019-01-23T09:15:14.024Z,108.50
2019-01-23T09:16:13.992Z,108.30
2019-01-23T09:17:14.002Z,106.70
2019-01-23T09:18:13.960Z,108.10
2019-01-23T09:19:13.980Z,107.40
2019-01-23T09:20:13.938Z,111.20
2019-01-23T09:21:13.931Z,108.40
2019-01-23T09:22:13.943Z,107.30
2019-01-23T09:23:13.912Z,108.20
2019-01-23T09:24:13.918Z,109.50
2019-01-23T09:25:13.895Z,110.00
2019-01-23T09:26:13.876Z,109.70
2019-01-23T09:27:13.884Z,112.90
2019-01-23T09:28:13.855Z,107.10
2019-01-23T09:29:13.850Z,111.70
2019-01-23T09:30:13.835Z,112.50
2019-01-23T09:31:13.831Z,111.70
2019-01-23T09:32:13.834Z,114.10
2019-01-23T09:33:13.806Z,113.80
2019-01-23T09:34:13.781Z,116.00
2019-01-23T09:35:13.810Z,115.00
2019-01-23T09:36:13.781Z,113.70
2019-01-23T09:37:13.808Z,114.50
2019-01-23T09:38:13.751Z,115.10
2019-01-23T09:39:13.748Z,109.40
2019-01-23T09:40:13.730Z,113.50
2019-01-23T09:41:13.710Z,113.50
2019-01-23T09:42:13.712Z,113.90
2019-01-23T09:43:13.706Z,114.40
2019-01-23T09:44:13.690Z,115.00
2019-01-23T09:45:13.685Z,113.80
2019-01-23T09:46:13.652Z,112.60
2019-01-23T09:47:13.646Z,110.20
2019-01-23T09:48:13.646Z,111.80
2019-01-23T09:49:13.626Z,113.50
2019-01-23T09:50:13.624Z,116.10
2019-01-23T09:51:13.594Z,116.50
2019-01-23T09:52:13.584Z,115.90
2019-01-23T09:53:13.592Z,116.20
2019-01-23T09:54:13.563Z,118.00
2019-01-23T09:55:13.557Z,114.70
2019-01-23T09:56:13.552Z,114.60
2019-01-23T09:57:13.532Z,117.10
2019-01-23T09:58:13.657Z,119.00
2019-01-23T09:59:13.513Z,118.90
2019-01-23T10:00:13.498Z,118.90
2019-01-23T10:01:13.486Z,117.40
2019-01-23T10:02:13.503Z,116.70
2019-01-23T10:03:13.498Z,115.50
2019-01-23T10:04:13.467Z,116.90
2019-01-23T10:05:13.452Z,116.10
2019-01-23T10:06:13.429Z,116.70
2019-01-23T10:07:13.437Z,119.30
2019-01-23T10:08:13.445Z,117.90
2019-01-23T10:09:13.404Z,118.60
2019-01-23T10:10:13.390Z,114.90
2019-01-23T10:11:13.377Z,116.20
2019-01-23T10:12:13.391Z,119.00
2019-01-23T10:13:13.396Z,118.80
2019-01-23T10:14:13.355Z,120.10
2019-01-23T10:15:13.351Z,118.50
2019-01-23T10:16:13.332Z,118.50
2019-01-23T10:17:13.321Z,118.60
2019-01-23T10:18:13.303Z,116.40
2019-01-23T10:19:13.311Z,118.40
2019-01-23T10:20:13.292Z,121.90
2019-01-23T10:21:13.272Z,114.80
2019-01-23T10:22:13.264Z,119.70
2019-01-23T10:23:13.258Z,119.80
2019-01-23T10:24:13.269Z,115.30
2019-01-23T10:25:13.218Z,118.40
2019-01-23T10:26:13.220Z,116.90
2019-01-23T10:27:13.212Z,118.80
2019-01-23T10:28:13.194Z,115.80
2019-01-23T10:29:13.219Z,117.60
2019-01-23T10:30:13.157Z,115.50
2019-01-23T10:31:13.155Z,115.30
2019-01-23T10:32:13.166Z,116.50
2019-01-23T10:33:13.140Z,115.40
2019-01-23T10:34:13.170Z,117.70
2019-01-23T10:35:13.135Z,116.50
2019-01-23T10:36:13.095Z,111.90
2019-01-23T10:37:19.368Z,112.20
2019-01-23T10:38:14.096Z,110.80
2019-01-23T10:39:13.108Z,112.00
2019-01-23T10:40:13.068Z,111.00
2019-01-23T10:41:13.078Z,113.00
2019-01-23T10:42:13.036Z,110.10
2019-01-23T10:43:13.024Z,109.30
2019-01-23T10:44:13.110Z,109.70
2019-01-23T10:45:13.018Z,109.90
2019-01-23T10:46:12.998Z,108.00
2019-01-23T10:47:12.991Z,109.30
2019-01-23T10:48:12.973Z,111.40
2019-01-23T10:49:12.976Z,108.60
2019-01-23T10:50:12.946Z,108.00
2019-01-23T10:51:12.943Z,109.40
2019-01-23T10:52:12.923Z,112.20
2019-01-23T10:53:12.923Z,109.40
2019-01-23T10:54:12.966Z,110.30
2019-01-23T10:55:12.898Z,108.40
2019-01-23T10:56:12.904Z,107.30
2019-01-23T10:57:12.891Z,108.70
2019-01-23T10:58:12.882Z,111.20
2019-01-23T10:59:12.918Z,110.50
2019-01-23T11:00:12.843Z,108.60
2019-01-23T11:01:13.443Z,104.60
2019-01-23T11:02:12.821Z,107.90
2019-01-23T11:03:12.818Z,107.20
2019-01-23T11:04:12.800Z,106.40
2019-01-23T11:05:12.804Z,105.50
2019-01-23T11:06:12.772Z,108.30
2019-01-23T11:07:12.767Z,107.00
2019-01-23T11:08:12.754Z,111.80
2019-01-23T11:09:12.774Z,110.30
2019-01-23T11:10:12.760Z,107.80
2019-01-23T11:11:12.709Z,110.50
2019-01-23T11:12:12.704Z,111.20
2019-01-23T11:13:12.692Z,110.80
2019-01-23T11:14:12.714Z,108.10
2019-01-23T11:15:12.717Z,105.20
2019-01-23T11:16:12.657Z,106.00
2019-01-23T11:17:12.656Z,108.20
2019-01-23T11:18:12.674Z,107.40
2019-01-23T11:19:12.652Z,107.50
2019-01-23T11:20:12.642Z,108.00
2019-01-23T11:21:12.636Z,108.10
2019-01-23T11:22:12.599Z,107.40
2019-01-23T11:23:12.582Z,108.20
2019-01-23T11:24:12.574Z,106.50
2019-01-23T11:25:12.578Z,106.00
2019-01-23T11:26:12.571Z,107.80
2019-01-23T11:27:12.548Z,107.50
2019-01-23T11:28:12.530Z,108.20
2019-01-23T11:29:12.516Z,108.50
2019-01-23T11:30:12.533Z,109.20
2019-01-23T11:31:12.496Z,106.70
2019-01-23T11:32:12.491Z,106.40
2019-01-23T11:33:12.470Z,108.80
2019-01-23T11:34:12.475Z,108.20
2019-01-23T11:35:12.476Z,108.20
2019-01-23T11:36:12.439Z,106.90
2019-01-23T11:37:12.440Z,107.40
2019-01-23T11:38:12.422Z,106.70
2019-01-23T11:39:12.452Z,108.80
2019-01-23T11:40:12.390Z,103.90
2019-01-23T11:41:12.411Z,107.60
2019-01-23T11:42:12.384Z,107.20
2019-01-23T11:43:12.894Z,108.20
2019-01-23T11:44:12.378Z,108.50
2019-01-23T11:45:12.343Z,106.40
2019-01-23T11:46:12.348Z,108.30
2019-01-23T11:47:12.328Z,104.60
2019-01-23T11:48:12.324Z,106.40
2019-01-23T11:49:12.335Z,106.10
2019-01-23T11:50:12.347Z,105.60
2019-01-23T11:51:12.294Z,104.50
2019-01-23T11:52:12.266Z,108.20
2019-01-23T11:53:12.400Z,107.40
2019-01-23T11:54:12.272Z,107.10
2019-01-23T11:55:12.247Z,106.80
2019-01-23T11:56:12.284Z,105.60
2019-01-23T11:57:12.214Z,104.80
2019-01-23T11:58:12.203Z,104.80
2019-01-23T11:59:12.190Z,102.50
2019-01-23T12:00:12.205Z,104.40
2019-01-23T12:01:12.194Z,104.20
2019-01-23T12:02:12.154Z,103.20
2019-01-23T12:03:12.133Z,103.80
2019-01-23T12:04:12.139Z,102.00
2019-01-23T12:05:12.143Z,106.50
2019-01-23T12:06:12.190Z,104.20
2019-01-23T12:07:12.100Z,107.70
2019-01-23T12:08:12.084Z,106.20
2019-01-23T12:09:12.087Z,103.60
2019-01-23T12:10:12.082Z,104.50
2019-01-23T12:11:12.079Z,103.60
2019-01-23T12:12:12.085Z,102.40
2019-01-23T12:13:12.090Z,105.90
2019-01-23T12:14:12.082Z,103.50
2019-01-23T12:15:12.021Z,104.00
2019-01-23T12:16:12.015Z,103.00
2019-01-23T12:17:12.017Z,103.90
2019-01-23T12:18:11.990Z,102.20
2019-01-23T12:19:11.976Z,102.30
2019-01-23T12:20:11.950Z,100.70
2019-01-23T12:21:12.043Z,100.40
2019-01-23T12:22:11.956Z,101.90
2019-01-23T12:23:11.996Z,103.20
2019-01-23T12:24:11.908Z,104.00
2019-01-23T12:25:11.898Z,100.50
2019-01-23T12:26:11.914Z,103.50
2019-01-23T12:27:11.882Z,99.50
2019-01-23T12:28:11.906Z,101.80
2019-01-23T12:29:11.864Z,101.50
2019-01-23T12:30:11.858Z,100.30
2019-01-23T12:31:11.833Z,102.50
2019-01-23T12:32:11.838Z,100.40
2019-01-23T12:33:11.806Z,100.20
2019-01-23T12:34:11.811Z,101.10
2019-01-23T12:35:11.785Z,99.50
2019-01-23T12:36:11.774Z,100.10
2019-01-23T12:37:11.784Z,101.30
2019-01-23T12:38:11.757Z,100.50
2019-01-23T12:39:11.767Z,100.30
2019-01-23T12:40:12.777Z,100.20
2019-01-23T12:41:11.716Z,100.40
2019-01-23T12:42:11.761Z,97.50
2019-01-23T12:43:11.696Z,99.00
2019-01-23T12:44:11.691Z,100.20
2019-01-23T12:45:11.684Z,100.20